KTCS/TCS METAR and TAF weather

Enter ICAO airport designator
Station Type Date Time Source
KTCS METAR 2018/12/17 01:53 UTC NOAA

KTCS 170153Z AUTO 28005KT 10SM CLR 09/M09 A3031 RMK AO2 SLP245 T00891089


Station Type Date Time Source
KTCS Decoded METAR 2018/12/17 01:53 UTC NOAA

TRUTH OR CONSEQUENCES MUNI, NM, United States (KTCS) 33-14N 107-16W 1469M
Dec 16, 2018 - 08:53 PM EST / 2018.12.17 0153 UTC
Wind: from the W (280 degrees) at 6 MPH (5 KT):0
Visibility: 10 mile(s):0
Sky conditions: clear
Temperature: 48.0 F (8.9 C)
Dew Point: 16.0 F (-8.9 C)
Relative Humidity: 27%
Pressure (altimeter): 30.31 in. Hg (1026 hPa)
ob: KTCS 170153Z AUTO 28005KT 10SM CLR 09/M09 A3031 RMK AO2 SLP245 T00891089
cycle: 2

Station Type Date Time Source
KTCS TAF 2018/12/16 18:24 UTC NOAA

TAF KTCS 161722Z 1618/1718 01005KT P6SM SCT150 BKN200
FM162000 12006KT P6SM SCT150 BKN200
FM170200 24005KT P6SM SCT080 BKN150
FM170800 33006KT P6SM VCSH FEW030 SCT080 BKN150


Example: see airport list